Time;durP1;ratioP1;P1;durP2;ratioP2;P2;SDS_P1;SDS_P2;PMS_P1;PMS_P2;Temp;Humidity;BMP_temperature;BMP_pressure;BME280_temperature;BME280_humidity;BME280_pressure;Samples;Min_cycle;Max_cycle;Signal;HPM_P1;HPM_P2
2023/10/15 00:00:49;;;;;;;8.88;2.05;;;7.20;99.90;;;;;;4792902;29;20038;-83
2023/10/15 00:03:15;;;;;;;5.50;1.67;;;7.20;99.90;;;;;;4800797;29;20542;-82
2023/10/15 00:05:41;;;;;;;7.07;1.67;;;7.20;99.90;;;;;;4799584;29;20046;-82
2023/10/15 00:08:07;;;;;;;9.05;2.17;;;7.20;99.90;;;;;;4827589;29;20042;-82
2023/10/15 00:10:34;;;;;;;8.93;2.25;;;7.20;99.90;;;;;;4799848;29;20043;-82
2023/10/15 00:13:00;;;;;;;5.88;1.90;;;7.20;99.90;;;;;;4795067;29;20065;-82
2023/10/15 00:15:31;;;;;;;4.15;1.20;;;7.30;99.90;;;;;;4795877;29;20395;-82
2023/10/15 00:18:00;;;;;;;2.97;1.25;;;7.30;99.90;;;;;;4814045;29;20463;-81
2023/10/15 00:20:31;;;;;;;7.80;1.95;;;7.30;99.90;;;;;;4821501;29;20626;-82
2023/10/15 00:22:58;;;;;;;3.70;1.20;;;7.30;99.90;;;;;;4808590;29;20058;-81
2023/10/15 00:25:24;;;;;;;4.78;1.08;;;7.30;99.90;;;;;;4793084;29;20133;-82
2023/10/15 00:27:57;;;;;;;8.20;1.50;;;7.30;99.90;;;;;;4796614;29;20535;-81
2023/10/15 00:30:31;;;;;;;5.30;1.42;;;7.30;99.90;;;;;;4791819;29;20136;-83
2023/10/15 00:32:57;;;;;;;15.25;2.00;;;7.30;99.90;;;;;;4801983;29;20046;-83
2023/10/15 00:35:25;;;;;;;6.78;1.33;;;7.30;99.90;;;;;;4805422;29;20137;-83
2023/10/15 00:37:57;;;;;;;5.00;1.45;;;7.30;99.90;;;;;;4808275;29;20043;-85
2023/10/15 00:40:25;;;;;;;9.40;1.57;;;7.40;99.90;;;;;;4812708;29;20109;-84
2023/10/15 00:42:51;;;;;;;10.93;1.80;;;7.30;99.90;;;;;;4799647;29;20298;-84
2023/10/15 00:45:18;;;;;;;12.13;2.38;;;7.40;99.90;;;;;;4792445;29;20036;-84
2023/10/15 00:48:00;;;;;;;5.05;1.35;;;7.40;99.90;;;;;;4795394;29;20047;-84
2023/10/15 00:50:38;;;;;;;5.28;1.35;;;7.30;99.90;;;;;;4812336;29;20038;-84
2023/10/15 00:53:21;;;;;;;9.40;2.10;;;7.30;99.90;;;;;;4793037;29;20129;-85
2023/10/15 00:55:51;;;;;;;4.00;1.17;;;7.30;99.90;;;;;;4807842;29;20125;-85
2023/10/15 00:58:53;;;;;;;5.40;1.10;;;7.20;99.90;;;;;;4796066;29;20083;-84
2023/10/15 01:03:50;;;;;;;5.10;1.50;;;7.00;99.90;;;;;;4808882;29;20087;-84
2023/10/15 01:06:29;;;;;;;4.35;1.50;;;7.00;99.90;;;;;;4813925;29;20045;-85
2023/10/15 01:09:01;;;;;;;9.45;1.88;;;7.00;99.90;;;;;;4806754;29;20048;-85
2023/10/15 01:11:29;;;;;;;6.40;1.42;;;6.90;99.90;;;;;;4800018;29;20066;-85
2023/10/15 01:13:55;;;;;;;7.63;1.98;;;6.90;99.90;;;;;;4792797;29;20075;-85
2023/10/15 01:16:22;;;;;;;5.93;1.50;;;6.90;99.90;;;;;;4791556;29;20039;-84
2023/10/15 01:21:32;;;;;;;3.42;1.33;;;6.80;99.90;;;;;;4831274;29;20049;-85
2023/10/15 01:24:07;;;;;;;5.75;1.40;;;6.80;99.90;;;;;;4802900;29;20045;-85
2023/10/15 01:26:38;;;;;;;8.13;1.45;;;6.80;99.90;;;;;;4825706;29;20133;-85
2023/10/15 01:29:07;;;;;;;6.70;1.65;;;6.70;99.90;;;;;;4813326;29;20045;-85
2023/10/15 01:31:41;;;;;;;4.07;1.48;;;6.80;99.90;;;;;;4806199;29;20034;-85
2023/10/15 01:34:09;;;;;;;7.43;1.77;;;6.80;99.90;;;;;;4799764;29;20502;-85
2023/10/15 01:36:38;;;;;;;11.10;1.63;;;6.80;99.90;;;;;;4824460;29;20045;-85
2023/10/15 01:39:10;;;;;;;4.13;1.17;;;6.80;99.90;;;;;;4798222;29;20038;-85
2023/10/15 01:41:39;;;;;;;4.25;1.05;;;6.80;99.90;;;;;;4799705;29;20129;-85
2023/10/15 01:44:06;;;;;;;3.35;1.10;;;6.90;99.90;;;;;;4807148;29;20046;-85
2023/10/15 01:46:48;;;;;;;4.22;1.20;;;6.80;99.90;;;;;;4798221;29;20536;-85
2023/10/15 01:49:31;;;;;;;7.43;1.63;;;6.80;99.90;;;;;;4793177;29;20128;-85
2023/10/15 01:52:05;;;;;;;8.82;1.90;;;6.80;99.90;;;;;;4794470;29;20042;-85
2023/10/15 01:54:31;;;;;;;7.03;1.92;;;6.80;99.90;;;;;;4811403;29;20510;-85
2023/10/15 01:56:57;;;;;;;7.18;1.55;;;6.80;99.90;;;;;;4791936;29;20042;-85
2023/10/15 01:59:23;;;;;;;7.18;1.67;;;6.80;99.90;;;;;;4786723;29;20494;-85
2023/10/15 02:01:49;;;;;;;6.78;1.58;;;6.80;99.90;;;;;;4818189;29;20071;-85
2023/10/15 02:06:47;;;;;;;5.82;1.80;;;6.80;99.90;;;;;;4828225;29;20115;-83
2023/10/15 02:09:18;;;;;;;5.28;1.38;;;6.70;99.90;;;;;;4794403;29;20039;-84
2023/10/15 02:11:47;;;;;;;4.47;1.42;;;6.70;99.90;;;;;;4791828;29;20490;-85
2023/10/15 02:14:27;;;;;;;3.63;1.30;;;6.60;99.90;;;;;;4806832;29;20095;-85
2023/10/15 02:16:53;;;;;;;7.50;1.85;;;6.60;99.90;;;;;;4794500;29;20046;-84
2023/10/15 02:19:30;;;;;;;6.20;2.70;;;6.50;99.90;;;;;;4794333;29;20605;-85
2023/10/15 02:21:56;;;;;;;5.80;1.52;;;6.50;99.90;;;;;;4812714;29;20077;-85
2023/10/15 02:24:23;;;;;;;5.68;1.42;;;6.50;99.90;;;;;;4787836;29;20053;-85
2023/10/15 02:26:49;;;;;;;7.47;1.70;;;6.40;99.90;;;;;;4839845;29;20107;-85
2023/10/15 02:32:07;;;;;;;7.32;2.08;;;6.40;99.90;;;;;;4799597;29;20051;-84
2023/10/15 02:34:40;;;;;;;8.30;2.00;;;6.30;99.90;;;;;;4797409;29;20039;-85
2023/10/15 02:37:10;;;;;;;22.27;2.97;;;6.20;99.90;;;;;;4817386;29;20493;-85
2023/10/15 02:39:38;;;;;;;7.28;2.10;;;6.10;99.90;;;;;;4786868;29;20135;-85
2023/10/15 02:42:04;;;;;;;7.50;2.05;;;6.10;99.90;;;;;;4816754;29;20125;-85
2023/10/15 02:44:32;;;;;;;17.42;3.03;;;6.00;99.90;;;;;;4806452;29;20133;-84
2023/10/15 02:47:10;;;;;;;15.32;2.85;;;6.00;99.90;;;;;;4818006;29;20054;-84
2023/10/15 02:52:20;;;;;;;7.40;2.13;;;5.90;99.90;;;;;;4807593;29;20410;-84
2023/10/15 02:54:52;;;;;;;20.83;2.55;;;6.00;99.90;;;;;;4773570;29;20043;-84
2023/10/15 02:57:18;;;;;;;6.30;1.80;;;6.00;99.90;;;;;;4775029;29;20051;-85
2023/10/15 02:59:53;;;;;;;10.25;2.50;;;5.90;99.90;;;;;;4782090;29;20050;-85
2023/10/15 03:02:25;;;;;;;6.93;2.25;;;5.90;99.90;;;;;;4803856;29;20081;-84
2023/10/15 03:04:56;;;;;;;6.73;2.30;;;5.80;99.90;;;;;;4829797;29;20520;-85
2023/10/15 03:07:31;;;;;;;13.50;3.03;;;5.80;99.90;;;;;;4794841;29;20315;-85
2023/10/15 03:09:57;;;;;;;7.82;2.58;;;5.90;99.90;;;;;;4796345;29;20030;-85
2023/10/15 03:12:23;;;;;;;5.10;1.80;;;5.70;99.90;;;;;;4811091;29;20042;-85
2023/10/15 03:14:49;;;;;;;6.43;1.92;;;5.80;99.90;;;;;;4804761;29;20413;-84
2023/10/15 03:17:24;;;;;;;6.30;1.80;;;5.70;99.90;;;;;;4809800;29;20509;-84
2023/10/15 03:19:52;;;;;;;7.18;2.33;;;5.60;99.90;;;;;;4814578;29;20038;-84
2023/10/15 03:22:17;;;;;;;9.00;1.92;;;5.60;99.90;;;;;;4797699;29;20050;-85
2023/10/15 03:24:44;;;;;;;6.85;1.77;;;5.60;99.90;;;;;;4824482;29;20061;-85
2023/10/15 03:27:16;;;;;;;5.07;1.70;;;5.60;99.90;;;;;;4823659;29;20050;-85
2023/10/15 03:29:42;;;;;;;16.33;2.45;;;5.60;99.90;;;;;;4798864;29;20570;-84
2023/10/15 03:32:12;;;;;;;24.45;3.92;;;5.60;99.90;;;;;;4798342;29;20125;-85
2023/10/15 03:34:48;;;;;;;11.02;3.03;;;5.70;99.90;;;;;;4801490;29;20069;-87
2023/10/15 03:37:16;;;;;;;19.08;4.43;;;5.80;99.90;;;;;;4794303;29;20077;-84
2023/10/15 03:42:17;;;;;;;8.52;3.05;;;6.00;99.90;;;;;;4834284;29;20049;-84
2023/10/15 03:44:47;;;;;;;9.63;2.97;;;6.00;99.90;;;;;;4818318;29;20582;-85
2023/10/15 03:47:16;;;;;;;5.97;1.85;;;6.10;99.90;;;;;;4801496;29;20046;-84
2023/10/15 03:49:46;;;;;;;9.98;2.35;;;6.10;99.90;;;;;;4789132;29;20031;-85
2023/10/15 03:52:34;;;;;;;23.60;3.42;;;6.00;99.90;;;;;;4805360;29;20038;-85
2023/10/15 03:54:59;;;;;;;20.77;3.50;;;6.00;99.90;;;;;;4823893;29;20042;-85
2023/10/15 03:57:28;;;;;;;11.13;2.58;;;5.90;99.90;;;;;;4809661;29;20390;-85
2023/10/15 03:59:55;;;;;;;10.73;2.72;;;5.90;99.90;;;;;;4803890;29;20057;-84
2023/10/15 04:03:06;;;;;;;10.73;2.15;;;5.80;99.90;;;;;;4793865;29;20530;-86
2023/10/15 04:05:14;;;;;;;10.63;2.63;;;5.80;99.90;;;;;;4790533;29;20055;-83
2023/10/15 04:07:48;;;;;;;11.05;2.70;;;5.70;99.90;;;;;;4790640;29;20530;-84
2023/10/15 04:10:22;;;;;;;9.43;2.70;;;5.60;99.90;;;;;;4807108;29;20042;-84
2023/10/15 04:12:48;;;;;;;18.20;2.58;;;5.60;99.90;;;;;;4797013;29;20105;-84
2023/10/15 04:15:16;;;;;;;9.68;2.75;;;5.50;99.90;;;;;;4797323;29;20549;-84
2023/10/15 04:17:51;;;;;;;8.85;2.35;;;5.40;99.90;;;;;;4793766;29;20042;-84
2023/10/15 04:20:26;;;;;;;12.68;2.08;;;5.40;99.90;;;;;;4792970;29;20038;-84
2023/10/15 04:22:53;;;;;;;9.38;2.30;;;5.40;99.90;;;;;;4793638;29;20050;-84
2023/10/15 04:25:28;;;;;;;9.65;2.53;;;5.30;99.90;;;;;;4793889;29;20047;-84
2023/10/15 04:28:14;;;;;;;12.65;3.28;;;5.30;99.90;;;;;;4820833;29;20155;-85
2023/10/15 04:30:40;;;;;;;8.85;2.47;;;5.30;99.90;;;;;;4790854;29;20046;-84
2023/10/15 04:33:18;;;;;;;16.95;3.70;;;5.40;99.90;;;;;;4805531;29;20498;-84
2023/10/15 04:35:43;;;;;;;9.55;2.70;;;5.50;99.90;;;;;;4790660;29;20414;-84
2023/10/15 04:38:15;;;;;;;8.40;2.28;;;5.50;99.90;;;;;;4806155;29;20076;-84
2023/10/15 04:43:25;;;;;;;9.90;2.95;;;5.70;99.90;;;;;;4808217;29;20296;-84
2023/10/15 04:45:55;;;;;;;7.47;2.88;;;5.80;99.90;;;;;;4793363;29;20049;-84
2023/10/15 06:59:52;;;;;;;5.55;1.10;;;6.20;99.90;;;;;;5063199;23;20078;-78
2023/10/15 07:02:18;;;;;;;5.05;1.13;;;6.20;99.90;;;;;;4790838;29;20100;-78
2023/10/15 07:04:43;;;;;;;8.48;1.17;;;6.20;99.90;;;;;;4798209;29;20072;-78
2023/10/15 07:07:09;;;;;;;5.20;1.00;;;6.20;99.90;;;;;;4798117;29;20053;-78
2023/10/15 07:09:36;;;;;;;5.90;0.88;;;6.10;99.90;;;;;;4794939;29;20043;-78
2023/10/15 08:58:10;;;;;;;;;;;8.20;99.90;;;;;;4830762;29;20062;-79
2023/10/15 09:00:39;;;;;;;5.20;1.25;;;8.30;99.90;;;;;;4807955;29;19920;-79
2023/10/15 09:03:05;;;;;;;6.03;1.10;;;8.40;99.90;;;;;;4790530;29;20518;-79
2023/10/15 09:05:37;;;;;;;8.05;1.50;;;8.40;99.90;;;;;;4807501;29;20122;-79
2023/10/15 09:08:07;;;;;;;6.90;1.25;;;8.60;99.90;;;;;;4789176;29;20042;-78
2023/10/15 09:31:16;;;;;;;4.13;1.23;;;9.40;99.90;;;;;;4893754;23;20103;-85
2023/10/15 09:33:42;;;;;;;4.22;1.17;;;9.30;99.90;;;;;;4814892;29;20042;-85
2023/10/15 09:36:08;;;;;;;3.80;1.10;;;9.20;99.90;;;;;;4789433;29;20043;-85
2023/10/15 09:38:35;;;;;;;6.20;1.15;;;9.30;99.90;;;;;;4813803;29;20050;-85
2023/10/15 09:41:01;;;;;;;5.45;1.33;;;9.40;99.90;;;;;;4799757;29;20498;-84
2023/10/15 09:43:28;;;;;;;4.10;0.95;;;9.50;99.90;;;;;;4789071;29;20454;-83
2023/10/15 09:45:54;;;;;;;4.90;1.10;;;9.50;99.90;;;;;;4774973;29;20045;-84
2023/10/15 09:48:27;;;;;;;4.32;1.13;;;9.70;99.90;;;;;;4786441;29;20417;-84
2023/10/15 09:50:59;;;;;;;6.25;1.33;;;10.00;99.90;;;;;;4769530;30;20047;-82
2023/10/15 09:53:33;;;;;;;5.57;1.63;;;10.20;99.90;;;;;;4792261;29;20038;-83
2023/10/15 09:56:03;;;;;;;4.65;1.23;;;10.30;99.90;;;;;;4774209;29;20058;-86
2023/10/15 09:58:29;;;;;;;6.75;1.40;;;10.40;99.90;;;;;;4773905;29;20122;-81
2023/10/15 10:01:08;;;;;;;6.43;1.52;;;10.40;99.90;;;;;;4783831;29;20442;-82
2023/10/15 10:03:40;;;;;;;4.07;1.20;;;10.60;99.90;;;;;;4790839;29;20451;-82
2023/10/15 10:06:43;;;;;;;4.90;1.35;;;10.80;99.90;;;;;;4806001;29;20061;-83
2023/10/15 10:09:36;;;;;;;3.75;1.17;;;11.00;99.90;;;;;;4796706;29;20125;-82
2023/10/15 10:12:32;;;;;;;3.38;0.95;;;11.10;99.90;;;;;;4766340;29;20051;-81
2023/10/15 10:15:15;;;;;;;3.78;0.90;;;11.10;99.90;;;;;;4790296;29;20042;-81
2023/10/15 10:17:41;;;;;;;5.05;1.20;;;11.20;99.90;;;;;;4791684;29;20153;-84
2023/10/15 10:20:13;;;;;;;5.55;1.33;;;11.30;99.90;;;;;;4780517;29;20129;-83
2023/10/15 10:22:41;;;;;;;4.03;1.10;;;11.60;99.90;;;;;;4796159;29;20502;-84
2023/10/15 10:25:07;;;;;;;4.20;0.95;;;11.90;99.90;;;;;;4789870;29;21885;-83
2023/10/15 10:27:43;;;;;;;4.65;1.10;;;12.40;99.90;;;;;;4788358;29;20096;-83
2023/10/15 10:30:42;;;;;;;4.85;1.50;;;12.90;99.90;;;;;;4788554;29;20077;-83
2023/10/15 10:33:09;;;;;;;5.55;1.40;;;13.50;99.90;;;;;;4775348;30;20047;-81
2023/10/15 10:35:45;;;;;;;8.23;1.50;;;13.90;99.90;;;;;;4772426;29;20133;-82
2023/10/15 10:38:18;;;;;;;5.40;1.33;;;14.40;99.90;;;;;;4787974;29;20055;-82
2023/10/15 10:40:47;;;;;;;7.10;1.55;;;14.50;99.90;;;;;;4802877;29;20039;-82
2023/10/15 10:43:18;;;;;;;7.68;1.80;;;14.70;99.90;;;;;;4792217;29;20047;-82
2023/10/15 10:46:06;;;;;;;6.80;1.60;;;14.90;99.90;;;;;;4788347;29;20047;-82
2023/10/15 10:48:39;;;;;;;8.23;1.85;;;15.00;99.90;;;;;;4788931;29;20035;-83
2023/10/15 10:51:11;;;;;;;7.07;1.67;;;15.10;99.90;;;;;;4773405;29;20099;-84
2023/10/15 10:53:39;;;;;;;7.88;1.45;;;15.20;99.90;;;;;;4787327;29;20151;-82
2023/10/15 10:56:06;;;;;;;6.70;1.35;;;15.10;99.90;;;;;;4795716;29;20047;-83
2023/10/15 10:58:34;;;;;;;7.20;1.70;;;15.00;99.90;;;;;;4788300;29;20043;-82
2023/10/15 11:01:01;;;;;;;5.75;1.40;;;15.00;99.90;;;;;;4789872;29;20379;-84
2023/10/15 11:03:28;;;;;;;7.43;1.60;;;15.10;99.90;;;;;;4775908;29;20042;-84
2023/10/15 11:05:55;;;;;;;6.70;1.50;;;15.40;99.90;;;;;;4798482;29;20050;-82
2023/10/15 11:08:21;;;;;;;5.55;1.33;;;15.80;99.90;;;;;;4793867;29;20410;-82
2023/10/15 11:10:48;;;;;;;5.70;1.40;;;16.10;99.90;;;;;;4790801;29;20054;-82
2023/10/15 11:13:15;;;;;;;6.00;1.60;;;15.60;99.90;;;;;;4797602;29;20045;-83
2023/10/15 11:15:42;;;;;;;9.32;1.70;;;14.70;99.90;;;;;;4794768;29;20117;-84
2023/10/15 11:18:09;;;;;;;5.47;1.55;;;13.70;99.90;;;;;;4803263;29;20065;-85
2023/10/15 11:20:35;;;;;;;5.25;1.23;;;12.70;99.90;;;;;;4796160;29;20050;-85
2023/10/15 11:23:06;;;;;;;5.93;1.33;;;11.80;99.90;;;;;;4801506;29;20042;-85
2023/10/15 11:25:34;;;;;;;7.45;1.42;;;11.30;99.90;;;;;;4801760;29;20046;-85
2023/10/15 11:28:10;;;;;;;4.55;1.30;;;10.70;99.90;;;;;;4809712;29;20137;-84
2023/10/15 11:30:38;;;;;;;4.70;1.40;;;10.30;99.90;;;;;;4795655;29;20100;-85
2023/10/15 11:33:07;;;;;;;5.18;1.15;;;10.10;99.90;;;;;;4778119;29;20051;-84
2023/10/15 11:35:33;;;;;;;5.57;1.30;;;9.90;99.90;;;;;;4785973;29;20039;-84
2023/10/15 11:38:06;;;;;;;8.32;1.38;;;9.80;99.90;;;;;;4796990;29;20081;-84
2023/10/15 11:40:36;;;;;;;6.63;1.40;;;9.80;99.90;;;;;;4775862;29;20426;-84
2023/10/15 11:43:03;;;;;;;7.47;1.20;;;9.70;99.90;;;;;;4781199;29;20047;-84
2023/10/15 11:45:31;;;;;;;6.38;1.25;;;9.60;99.90;;;;;;4783342;29;20583;-84
2023/10/15 11:47:58;;;;;;;11.60;1.83;;;9.50;99.90;;;;;;4790567;29;20035;-84
2023/10/15 11:50:24;;;;;;;6.65;1.60;;;9.40;99.90;;;;;;4781266;29;20080;-84
2023/10/15 11:52:55;;;;;;;5.85;1.52;;;9.40;99.90;;;;;;4785561;29;20050;-84
2023/10/15 11:55:28;;;;;;;8.15;2.05;;;9.40;99.90;;;;;;4773255;29;20039;-84
2023/10/15 11:57:54;;;;;;;6.05;1.60;;;9.80;99.90;;;;;;4775683;29;20047;-84
2023/10/15 12:00:33;;;;;;;8.18;1.95;;;10.50;99.90;;;;;;4789282;29;20057;-83
2023/10/15 12:03:05;;;;;;;6.25;1.60;;;11.10;99.90;;;;;;4781796;29;20046;-84
2023/10/15 12:05:32;;;;;;;7.05;1.67;;;11.60;99.90;;;;;;4791312;29;20054;-84
2023/10/15 12:08:00;;;;;;;9.20;1.95;;;12.00;99.90;;;;;;4775536;29;20043;-84
2023/10/15 12:12:59;;;;;;;6.90;1.60;;;12.90;99.90;;;;;;4810060;29;20502;-84
2023/10/15 12:15:30;;;;;;;7.93;1.52;;;13.20;99.90;;;;;;4795623;29;20482;-84
2023/10/15 12:17:56;;;;;;;5.72;1.50;;;13.40;99.90;;;;;;4795116;29;20386;-84
2023/10/15 12:20:26;;;;;;;6.38;1.50;;;13.40;99.90;;;;;;4798282;29;20042;-84
2023/10/15 12:23:07;;;;;;;6.18;1.25;;;13.50;99.90;;;;;;4805656;29;20062;-82
2023/10/15 12:55:56;;;;;;;;;;;;;;;;;;;;;
2023/10/15 13:21:23;;;;;;;5.32;1.27;;;14.60;99.90;;;;;;5807735;23;20032;-84
2023/10/15 13:23:48;;;;;;;4.60;1.20;;;14.30;99.90;;;;;;4791383;29;20425;-81
2023/10/15 13:26:14;;;;;;;4.78;1.40;;;13.80;99.90;;;;;;4805572;29;20504;-84
2023/10/15 13:28:39;;;;;;;4.38;1.13;;;13.20;99.90;;;;;;4804022;29;20137;-81
2023/10/15 13:31:06;;;;;;;4.70;1.10;;;12.50;99.90;;;;;;4790955;29;20050;-83
2023/10/15 13:33:32;;;;;;;3.13;0.88;;;12.00;99.90;;;;;;4791280;29;20039;-81
2023/10/15 13:35:58;;;;;;;4.88;1.13;;;11.60;99.90;;;;;;4788309;29;20038;-83
2023/10/15 13:38:25;;;;;;;5.35;1.27;;;11.30;99.90;;;;;;4773521;29;20049;-83
2023/10/15 13:40:53;;;;;;;4.93;1.17;;;11.60;99.90;;;;;;4788106;29;20066;-83
2023/10/15 13:43:19;;;;;;;5.45;1.40;;;12.30;99.90;;;;;;4789857;29;20050;-82
2023/10/15 13:45:45;;;;;;;5.20;1.23;;;12.90;99.90;;;;;;4789201;29;20419;-82
2023/10/15 13:48:10;;;;;;;4.20;1.23;;;13.40;99.90;;;;;;4790426;29;20038;-82
2023/10/15 13:50:36;;;;;;;3.50;1.00;;;13.50;99.90;;;;;;4791485;29;20043;-82
2023/10/15 13:53:03;;;;;;;4.75;0.90;;;13.30;99.90;;;;;;4807170;29;20045;-82
2023/10/15 13:55:29;;;;;;;6.57;1.00;;;13.10;99.90;;;;;;4806853;29;20042;-82
2023/10/15 13:57:55;;;;;;;4.72;0.95;;;12.90;99.90;;;;;;4807030;29;20092;-83
2023/10/15 14:00:21;;;;;;;4.45;1.20;;;12.70;99.90;;;;;;4800961;29;20086;-82
2023/10/15 14:02:48;;;;;;;6.13;1.33;;;12.50;99.90;;;;;;4801276;29;20495;-82
2023/10/15 14:05:18;;;;;;;3.83;1.00;;;12.20;99.90;;;;;;4788753;29;20043;-82
2023/10/15 14:07:49;;;;;;;4.53;1.27;;;12.00;99.90;;;;;;4788841;29;20123;-81
2023/10/15 14:10:18;;;;;;;5.13;1.45;;;11.80;99.90;;;;;;4774138;29;20051;-82
2023/10/15 14:12:44;;;;;;;6.40;1.48;;;11.60;99.90;;;;;;4780386;29;20041;-82
2023/10/15 14:15:13;;;;;;;5.15;1.20;;;11.50;99.90;;;;;;4792351;29;20521;-82
2023/10/15 14:17:44;;;;;;;4.53;1.10;;;11.40;99.90;;;;;;4803299;29;20047;-82
2023/10/15 14:20:17;;;;;;;4.85;1.10;;;11.30;99.90;;;;;;4802708;29;20046;-82
2023/10/15 14:22:46;;;;;;;6.10;1.35;;;11.20;99.90;;;;;;4812814;29;20046;-82
2023/10/15 14:25:12;;;;;;;6.60;1.10;;;11.10;99.90;;;;;;4802410;29;20043;-82
2023/10/15 14:27:38;;;;;;;5.47;1.40;;;11.10;99.90;;;;;;4806661;29;20102;-82
2023/10/15 14:30:07;;;;;;;6.45;1.70;;;11.00;99.90;;;;;;4800404;29;20467;-82
2023/10/15 14:32:33;;;;;;;5.53;1.45;;;11.10;99.90;;;;;;4775624;29;20444;-82
2023/10/15 14:34:59;;;;;;;6.32;1.42;;;11.10;99.90;;;;;;4794078;29;20510;-81
2023/10/15 14:37:26;;;;;;;7.05;1.75;;;11.00;99.90;;;;;;4803939;29;20057;-82
2023/10/15 14:39:51;;;;;;;6.05;1.70;;;10.90;99.90;;;;;;4787907;29;20047;-82
2023/10/15 14:42:18;;;;;;;4.80;1.17;;;10.90;99.90;;;;;;4788162;29;20049;-82
2023/10/15 14:44:43;;;;;;;4.88;1.30;;;10.90;99.90;;;;;;4784112;29;20046;-82
2023/10/15 14:47:09;;;;;;;6.57;1.35;;;10.80;99.90;;;;;;4803475;29;20506;-82
2023/10/15 14:49:35;;;;;;;6.45;1.50;;;10.70;99.90;;;;;;4783421;29;20039;-82
2023/10/15 14:52:00;;;;;;;6.75;1.50;;;10.70;99.90;;;;;;4781405;29;20043;-82
2023/10/15 14:54:26;;;;;;;5.63;1.42;;;10.70;99.90;;;;;;4787712;29;20051;-82
2023/10/15 14:56:51;;;;;;;6.18;1.70;;;10.60;99.90;;;;;;4776168;29;20038;-85
2023/10/15 14:59:17;;;;;;;6.90;1.58;;;10.60;99.90;;;;;;4777336;29;20047;-84
2023/10/15 15:01:43;;;;;;;5.35;1.20;;;10.70;99.90;;;;;;4790575;29;20045;-83
2023/10/15 15:04:10;;;;;;;7.18;1.60;;;10.70;99.90;;;;;;4775783;29;20498;-82
2023/10/15 15:06:39;;;;;;;5.55;1.40;;;10.80;99.90;;;;;;4776776;29;20098;-83
2023/10/15 15:09:04;;;;;;;6.38;1.88;;;10.90;99.90;;;;;;4797067;29;20107;-83
2023/10/15 15:11:30;;;;;;;5.13;1.02;;;11.00;99.90;;;;;;4787746;29;20486;-83
2023/10/15 15:13:56;;;;;;;6.53;1.40;;;11.10;99.90;;;;;;4795135;29;20039;-83
2023/10/15 15:16:21;;;;;;;5.28;1.20;;;11.20;99.90;;;;;;4784932;29;20241;-82
2023/10/15 15:18:47;;;;;;;3.28;0.90;;;11.30;99.90;;;;;;4787797;29;20049;-81
2023/10/15 15:21:13;;;;;;;4.78;1.13;;;11.20;99.90;;;;;;4809824;29;20129;-83
2023/10/15 15:23:38;;;;;;;5.03;1.40;;;11.10;99.90;;;;;;4789129;29;20078;-82
2023/10/15 15:26:05;;;;;;;4.97;1.15;;;11.00;99.90;;;;;;4797016;29;20038;-83
2023/10/15 15:28:32;;;;;;;5.72;1.20;;;10.80;99.90;;;;;;4784763;29;20505;-84
2023/10/15 15:31:02;;;;;;;3.33;1.10;;;10.50;99.90;;;;;;4779888;29;20525;-83
2023/10/15 15:33:27;;;;;;;7.10;1.35;;;10.30;99.90;;;;;;4802280;29;20042;-81
2023/10/15 15:35:54;;;;;;;6.65;1.30;;;10.10;99.90;;;;;;4809509;29;20520;-84
2023/10/15 15:38:20;;;;;;;5.25;1.35;;;10.00;99.90;;;;;;4806651;29;20098;-82
2023/10/15 15:40:54;;;;;;;5.28;1.42;;;9.90;99.90;;;;;;4787661;29;20046;-81
2023/10/15 15:43:23;;;;;;;5.55;1.10;;;9.80;99.90;;;;;;4809509;29;20054;-82
2023/10/15 15:45:50;;;;;;;5.50;1.42;;;9.70;99.90;;;;;;4798261;29;20053;-82
2023/10/15 15:48:19;;;;;;;5.22;1.45;;;9.60;99.90;;;;;;4775894;29;20043;-82
2023/10/15 15:50:46;;;;;;;5.88;1.50;;;9.50;99.90;;;;;;4786727;29;20633;-82
2023/10/15 15:53:13;;;;;;;3.35;1.23;;;9.40;99.90;;;;;;4790063;29;20043;-81
2023/10/15 15:55:41;;;;;;;4.43;1.15;;;9.30;99.90;;;;;;4777074;29;20125;-81
2023/10/15 15:58:07;;;;;;;5.07;1.40;;;9.20;99.90;;;;;;4791393;29;20175;-79
2023/10/15 16:00:34;;;;;;;6.03;1.40;;;9.10;99.90;;;;;;4786652;29;20039;-81
2023/10/15 16:03:00;;;;;;;6.20;1.92;;;9.00;99.90;;;;;;4783272;29;20057;-82
2023/10/15 16:05:27;;;;;;;4.50;1.25;;;8.90;99.90;;;;;;4791190;29;20129;-83
2023/10/15 16:07:54;;;;;;;4.43;1.38;;;8.90;99.90;;;;;;4785581;30;20035;-81
2023/10/15 16:10:20;;;;;;;4.93;1.10;;;8.80;99.90;;;;;;4793238;29;20133;-83
2023/10/15 16:12:45;;;;;;;6.15;1.55;;;8.70;99.90;;;;;;4776140;29;20125;-84
2023/10/15 16:15:12;;;;;;;8.20;1.45;;;8.60;99.90;;;;;;4767332;29;20395;-83
2023/10/15 16:17:37;;;;;;;6.65;1.55;;;8.50;99.90;;;;;;4790211;29;20495;-84
2023/10/15 16:20:08;;;;;;;6.28;1.42;;;8.40;99.90;;;;;;4786100;29;20109;-84
2023/10/15 16:22:34;;;;;;;5.80;1.40;;;8.40;99.90;;;;;;4805610;29;20054;-83
2023/10/15 16:24:59;;;;;;;7.80;1.58;;;8.40;99.90;;;;;;4790051;29;20305;-83
2023/10/15 16:27:25;;;;;;;6.45;1.60;;;8.30;99.90;;;;;;4789699;29;20049;-83
2023/10/15 16:29:50;;;;;;;5.72;1.60;;;8.30;99.90;;;;;;4789447;29;20122;-81
2023/10/15 16:32:16;;;;;;;7.00;1.98;;;8.30;99.90;;;;;;4805290;29;20077;-83
2023/10/15 16:34:41;;;;;;;7.70;2.08;;;8.30;99.90;;;;;;4772294;29;20043;-82
2023/10/15 16:37:07;;;;;;;4.78;1.33;;;8.30;99.90;;;;;;4768973;29;20038;-84
2023/10/15 16:39:33;;;;;;;5.90;1.15;;;8.20;99.90;;;;;;4776798;29;20038;-85
2023/10/15 16:41:59;;;;;;;6.15;1.42;;;8.20;99.90;;;;;;4776708;29;20047;-83
2023/10/15 16:44:25;;;;;;;6.53;1.60;;;8.10;99.90;;;;;;4789949;29;20047;-84
2023/10/15 16:46:52;;;;;;;6.15;1.50;;;8.00;99.90;;;;;;4775174;29;20115;-84
2023/10/15 16:49:18;;;;;;;6.10;1.35;;;7.90;99.90;;;;;;4790395;29;20550;-83
2023/10/15 16:51:43;;;;;;;4.78;1.30;;;7.80;99.90;;;;;;4790004;29;20134;-86
2023/10/15 16:54:09;;;;;;;5.05;1.40;;;7.70;99.90;;;;;;4792197;29;20035;-82
2023/10/15 16:56:35;;;;;;;6.75;1.40;;;7.70;99.90;;;;;;4796216;29;20043;-82
2023/10/15 17:02:23;;;;;;;7.15;1.50;;;7.60;99.90;;;;;;4789060;29;20130;-82
2023/10/15 17:04:52;;;;;;;4.80;1.58;;;7.50;99.90;;;;;;4804068;29;20099;-82
2023/10/15 17:07:19;;;;;;;5.60;1.48;;;7.40;99.90;;;;;;4795094;29;20077;-82
2023/10/15 17:09:45;;;;;;;4.65;1.20;;;7.40;99.90;;;;;;4789919;29;20047;-82
2023/10/15 17:12:11;;;;;;;6.07;1.50;;;7.30;99.90;;;;;;4790172;29;20050;-82
2023/10/15 17:14:36;;;;;;;8.57;1.63;;;7.20;99.90;;;;;;4788801;29;20410;-82
2023/10/15 17:17:04;;;;;;;4.97;1.65;;;7.10;99.90;;;;;;4777058;29;20041;-81
2023/10/15 17:19:33;;;;;;;5.93;1.67;;;7.10;99.90;;;;;;4774132;29;20414;-81
2023/10/15 17:22:07;;;;;;;6.10;1.73;;;7.00;99.90;;;;;;4773661;29;20054;-82
2023/10/15 17:24:33;;;;;;;5.53;1.73;;;6.90;99.90;;;;;;4787206;29;20153;-81
2023/10/15 17:26:59;;;;;;;6.22;1.50;;;6.90;99.90;;;;;;4786217;29;20426;-82
2023/10/15 17:29:27;;;;;;;7.47;1.75;;;6.80;99.90;;;;;;4783505;29;20497;-81
2023/10/15 17:31:56;;;;;;;5.47;1.55;;;6.70;99.90;;;;;;4789069;29;20043;-81
2023/10/15 17:34:26;;;;;;;6.03;1.80;;;6.60;99.90;;;;;;4795067;29;20050;-82
2023/10/15 17:36:53;;;;;;;6.53;2.00;;;6.70;99.90;;;;;;4787100;29;20049;-82
2023/10/15 17:39:20;;;;;;;4.95;1.70;;;6.50;99.90;;;;;;4795392;29;20058;-81
2023/10/15 17:41:47;;;;;;;7.47;1.80;;;6.50;99.90;;;;;;4791376;29;20050;-81
2023/10/15 17:44:15;;;;;;;7.70;1.92;;;6.50;99.90;;;;;;4783341;29;20047;-82
2023/10/15 17:46:40;;;;;;;7.20;1.75;;;6.40;99.90;;;;;;4786724;29;20051;-81
2023/10/15 17:49:07;;;;;;;8.35;2.08;;;6.30;99.90;;;;;;4794101;29;20050;-81
2023/10/15 17:51:33;;;;;;;7.68;2.28;;;6.30;99.90;;;;;;4775859;29;20043;-81
2023/10/15 17:53:59;;;;;;;5.93;1.67;;;6.20;99.90;;;;;;4807089;29;20095;-81
2023/10/15 17:56:28;;;;;;;7.15;2.05;;;6.20;99.90;;;;;;4765596;29;20087;-81
2023/10/15 17:58:54;;;;;;;6.05;2.38;;;6.10;99.90;;;;;;4788213;29;20042;-81
2023/10/15 18:01:22;;;;;;;9.57;3.13;;;6.10;99.90;;;;;;4802097;29;20494;-81
2023/10/15 18:03:51;;;;;;;9.13;3.13;;;6.10;99.90;;;;;;4779691;29;20680;-81
2023/10/15 18:06:21;;;;;;;9.05;3.03;;;6.00;99.90;;;;;;4771476;29;20035;-81
2023/10/15 18:08:47;;;;;;;6.65;2.35;;;6.00;99.90;;;;;;4781367;29;20039;-82
2023/10/15 18:11:13;;;;;;;9.88;2.70;;;6.00;99.90;;;;;;4787849;29;20070;-87
2023/10/15 18:13:42;;;;;;;8.93;3.08;;;6.00;99.90;;;;;;4788194;29;20043;-86
2023/10/15 18:16:12;;;;;;;9.32;3.42;;;6.00;99.90;;;;;;4786586;29;20670;-83
2023/10/15 18:18:38;;;;;;;8.52;2.78;;;5.90;99.90;;;;;;4786280;29;20057;-83
2023/10/15 18:21:18;;;;;;;9.48;3.40;;;6.00;99.90;;;;;;4793962;29;20074;-82
2023/10/15 18:23:44;;;;;;;8.77;2.60;;;6.00;99.90;;;;;;4775089;29;20097;-82
2023/10/15 18:26:12;;;;;;;9.40;3.05;;;6.10;99.90;;;;;;4785851;29;20103;-83
2023/10/15 18:28:41;;;;;;;8.52;2.80;;;6.00;99.90;;;;;;4783155;29;21035;-83
2023/10/15 18:31:36;;;;;;;8.77;2.80;;;6.20;99.90;;;;;;4777668;29;20051;-82
2023/10/15 18:34:06;;;;;;;10.30;2.95;;;6.20;99.90;;;;;;4792570;29;20049;-83
2023/10/15 18:41:34;;;;;;;10.18;3.17;;;6.20;99.90;;;;;;4774019;29;20048;-82
2023/10/15 18:44:05;;;;;;;7.13;2.55;;;6.10;99.90;;;;;;4798962;29;20047;-83